Time;durP1;ratioP1;P1;durP2;ratioP2;P2;SDS_P1;SDS_P2;PMS_P1;PMS_P2;Temp;Humidity;BMP_temperature;BMP_pressure;BME280_temperature;BME280_humidity;BME280_pressure;Samples;Min_cycle;Max_cycle;Signal;HPM_P1;HPM_P2
2022/11/15 00:01:19;;;;;;;5.80;4.73;;;;;;;8.13;100.00;153446.88;4983689;28;20441;-77
2022/11/15 00:04:24;;;;;;;6.13;5.53;;;;;;;8.14;100.00;153450.75;4993647;28;20924;-76
2022/11/15 00:07:30;;;;;;;6.47;5.67;;;;;;;8.16;100.00;153455.91;4994002;28;20451;-76
2022/11/15 00:10:35;;;;;;;6.33;5.40;;;;;;;8.15;100.00;153453.34;4992767;28;20496;-77
2022/11/15 00:13:39;;;;;;;5.30;4.80;;;;;;;8.15;100.00;153453.34;4993645;28;20448;-77
2022/11/15 00:16:46;;;;;;;8.17;5.17;;;;;;;8.17;100.00;153458.50;4986771;28;20472;-77
2022/11/15 00:19:51;;;;;;;6.53;4.60;;;;;;;8.17;100.00;153458.50;4979543;28;20464;-77
2022/11/15 00:22:56;;;;;;;5.73;3.77;;;;;;;8.23;100.00;153474.03;4975993;28;20438;-77
2022/11/15 00:26:01;;;;;;;5.30;4.43;;;;;;;8.24;100.00;153476.59;4994113;28;20463;-77
2022/11/15 00:29:06;;;;;;;8.03;3.97;;;;;;;8.25;100.00;153477.88;4992641;28;20445;-77
2022/11/15 00:32:13;;;;;;;3.87;3.00;;;;;;;8.30;100.00;153492.16;4986934;28;20517;-77
2022/11/15 00:35:17;;;;;;;4.40;3.47;;;;;;;8.29;100.00;153488.25;4992278;28;20425;-77
2022/11/15 00:38:23;;;;;;;5.90;4.00;;;;;;;8.26;100.00;153480.50;4991926;28;20990;-77
2022/11/15 00:41:27;;;;;;;4.37;3.37;;;;;;;8.25;100.00;153477.88;4993588;28;20477;-77
2022/11/15 00:44:32;;;;;;;5.53;3.20;;;;;;;8.22;100.00;153471.44;4992645;28;20480;-77
2022/11/15 00:47:38;;;;;;;4.40;2.93;;;;;;;8.19;100.00;153463.66;4992914;28;20457;-77
2022/11/15 00:50:43;;;;;;;4.60;3.10;;;;;;;8.17;100.00;153458.50;4992929;28;20479;-77
2022/11/15 00:53:48;;;;;;;4.33;3.93;;;;;;;8.16;100.00;153454.59;4992270;28;20433;-77
2022/11/15 00:56:52;;;;;;;5.90;4.00;;;;;;;8.13;100.00;153448.13;4989383;28;20499;-77
2022/11/15 00:59:57;;;;;;;4.83;3.53;;;;;;;8.10;100.00;153439.13;4992680;28;20462;-77
2022/11/15 01:03:04;;;;;;;4.43;3.30;;;;;;;8.08;100.00;153435.22;4988645;28;20863;-77
2022/11/15 01:06:11;;;;;;;4.80;4.30;;;;;;;8.04;100.00;153423.63;4988027;28;20521;-77
2022/11/15 01:09:16;;;;;;;4.10;3.70;;;;;;;8.04;100.00;153424.91;4992632;28;20457;-77
2022/11/15 01:12:21;;;;;;;4.10;3.23;;;;;;;8.03;100.00;153422.31;4996414;28;20491;-78
2022/11/15 01:15:26;;;;;;;4.77;3.47;;;;;;;8.05;100.00;153426.22;4994003;28;20424;-78
2022/11/15 01:18:32;;;;;;;3.67;3.30;;;;;;;7.98;100.00;153409.41;4997163;28;20442;-78
2022/11/15 01:21:37;;;;;;;6.30;4.23;;;;;;;7.96;100.00;153405.53;4996460;28;20476;-78
2022/11/15 01:24:42;;;;;;;5.23;4.07;;;;;;;7.96;100.00;153404.22;4988275;28;20469;-78
2022/11/15 01:27:47;;;;;;;4.53;4.10;;;;;;;7.93;100.00;153396.47;4982080;28;20434;-77
2022/11/15 01:30:52;;;;;;;3.90;3.30;;;;;;;7.89;100.00;153386.13;4982484;28;20496;-78
2022/11/15 01:33:58;;;;;;;4.97;3.50;;;;;;;7.83;100.00;153371.94;4979922;28;20492;-78
2022/11/15 01:37:04;;;;;;;3.50;3.20;;;;;;;7.84;100.00;153373.19;4976086;28;20445;-77
2022/11/15 01:40:09;;;;;;;4.20;3.23;;;;;;;7.81;100.00;153365.50;4974139;28;21086;-77
2022/11/15 01:43:22;;;;;;;4.60;3.23;;;;;;;7.76;100.00;153352.53;4968208;28;20955;-77
2022/11/15 01:46:30;;;;;;;4.10;3.70;;;;;;;7.73;100.00;153344.81;4977027;28;20500;-78
2022/11/15 01:49:39;;;;;;;6.63;3.80;;;;;;;7.68;100.00;153331.84;4984451;28;20962;-77
2022/11/15 01:52:47;;;;;;;4.30;3.63;;;;;;;7.61;100.00;153315.09;4984581;28;20465;-78
2022/11/15 01:55:51;;;;;;;5.10;3.10;;;;;;;7.58;100.00;153306.03;4973967;28;20534;-77
2022/11/15 01:58:58;;;;;;;4.03;3.20;;;;;;;7.53;100.00;153293.13;4980839;28;20452;-77
2022/11/15 02:02:03;;;;;;;4.50;3.73;;;;;;;7.48;100.00;153280.22;4995625;28;20861;-77
2022/11/15 02:05:09;;;;;;;4.63;3.50;;;;;;;7.45;100.00;153272.47;4959245;28;20883;-77
2022/11/15 02:08:19;;;;;;;6.50;4.13;;;;;;;7.40;100.00;153259.53;4989122;28;20441;-78
2022/11/15 02:11:24;;;;;;;4.33;3.43;;;;;;;7.38;100.00;153254.41;4995964;28;20967;-77
2022/11/15 02:14:29;;;;;;;5.50;4.63;;;;;;;7.35;100.00;153249.25;4971639;28;20442;-77
2022/11/15 02:17:45;;;;;;;4.30;3.70;;;;;;;7.33;100.00;153244.03;4990770;28;20457;-77
2022/11/15 02:21:03;;;;;;;5.33;4.00;;;;;;;7.33;100.00;153242.78;4995614;28;20770;-77
2022/11/15 02:24:35;;;;;;;6.20;3.97;;;;;;;7.33;100.00;153244.03;4975870;28;20406;-77
2022/11/15 02:28:16;;;;;;;4.87;4.23;;;;;;;7.32;100.00;153241.47;4973301;28;20450;-77
2022/11/15 02:31:29;;;;;;;4.30;3.90;;;;;;;7.34;100.00;153246.63;4969697;28;20536;-78
2022/11/15 02:34:38;;;;;;;5.50;3.57;;;;;;;7.32;100.00;153240.19;4962721;28;20455;-78
2022/11/15 02:37:46;;;;;;;6.60;4.10;;;;;;;7.29;100.00;153232.44;4970033;28;20505;-78
2022/11/15 02:40:55;;;;;;;3.90;3.27;;;;;;;7.29;100.00;153233.72;4969143;28;20456;-77
2022/11/15 02:44:02;;;;;;;6.30;4.57;;;;;;;7.29;100.00;153233.72;4975576;28;20453;-77
2022/11/15 02:47:16;;;;;;;6.10;3.93;;;;;;;7.30;100.00;153236.34;4969103;28;20958;-77
2022/11/15 02:50:23;;;;;;;4.63;3.40;;;;;;;7.33;100.00;153242.78;4966053;28;20546;-77
2022/11/15 02:53:29;;;;;;;4.70;3.57;;;;;;;7.33;100.00;153244.03;4965534;28;20538;-77
2022/11/15 02:56:33;;;;;;;4.10;3.10;;;;;;;7.33;100.00;153244.03;4974175;28;20574;-78
2022/11/15 02:59:58;;;;;;;3.33;3.00;;;;;;;7.38;100.00;153254.41;4966333;28;20735;-77
2022/11/15 03:03:21;;;;;;;5.30;2.97;;;;;;;7.40;100.00;153259.53;4972444;28;20948;-77
2022/11/15 03:06:31;;;;;;;4.00;2.57;;;;;;;7.43;100.00;153267.31;4966994;28;20792;-78
2022/11/15 03:09:36;;;;;;;3.00;2.70;;;;;;;7.44;100.00;153269.91;4958973;29;20480;-78
2022/11/15 03:12:44;;;;;;;4.40;3.20;;;;;;;7.44;100.00;153269.91;4969969;28;20485;-78
2022/11/15 03:15:55;;;;;;;3.40;2.60;;;;;;;7.43;100.00;153267.31;4976424;28;20426;-77
2022/11/15 03:19:04;;;;;;;2.83;2.43;;;;;;;7.45;100.00;153273.75;4963909;28;20439;-77
2022/11/15 03:22:13;;;;;;;3.30;2.43;;;;;;;7.44;100.00;153269.91;4974058;28;20454;-77
2022/11/15 03:25:22;;;;;;;4.80;3.10;;;;;;;7.41;100.00;153263.44;4956697;29;20415;-77
2022/11/15 03:28:32;;;;;;;3.50;2.40;;;;;;;7.41;100.00;153263.44;4960557;28;21012;-77
2022/11/15 03:31:48;;;;;;;3.20;2.67;;;;;;;7.40;100.00;153259.53;4973736;28;20521;-78
2022/11/15 03:34:58;;;;;;;2.90;2.53;;;;;;;7.39;100.00;153258.25;4973289;28;20446;-76
2022/11/15 03:38:07;;;;;;;5.10;2.80;;;;;;;7.39;100.00;153258.25;4965140;28;20462;-76
2022/11/15 03:41:18;;;;;;;3.20;2.63;;;;;;;7.38;100.00;153255.69;4971048;28;20537;-77
2022/11/15 03:44:29;;;;;;;2.70;2.30;;;;;;;7.36;100.00;153251.78;4960406;28;20491;-76
2022/11/15 03:47:36;;;;;;;3.97;2.93;;;;;;;7.38;100.00;153254.41;4963173;28;20478;-77
2022/11/15 03:50:43;;;;;;;3.40;2.90;;;;;;;7.38;100.00;153255.69;4971388;28;20430;-77
2022/11/15 03:53:48;;;;;;;3.30;3.00;;;;;;;7.39;100.00;153257.00;4964285;28;20945;-77
2022/11/15 03:56:54;;;;;;;4.23;2.77;;;;;;;7.40;100.00;153260.84;4973217;28;20465;-77
2022/11/15 03:59:59;;;;;;;3.00;2.70;;;;;;;7.41;100.00;153262.16;4957242;28;20422;-77
2022/11/15 04:03:03;;;;;;;3.60;2.70;;;;;;;7.40;100.00;153259.53;4974964;28;20427;-76
2022/11/15 04:06:10;;;;;;;3.80;2.53;;;;;;;7.38;100.00;153254.41;4973951;28;20947;-76
2022/11/15 04:09:14;;;;;;;4.03;3.00;;;;;;;7.32;100.00;153241.47;4962629;28;20511;-77
2022/11/15 04:12:30;;;;;;;3.37;3.07;;;;;;;7.34;100.00;153246.63;4953224;28;20473;-77
2022/11/15 04:15:36;;;;;;;3.30;2.80;;;;;;;7.33;100.00;153244.03;4954308;28;20535;-77
2022/11/15 04:18:44;;;;;;;3.33;2.93;;;;;;;7.31;100.00;153237.59;4968899;28;20610;-77
2022/11/15 04:25:12;;;;;;;3.30;2.80;;;;;;;7.25;100.00;153223.38;4955436;28;20442;-77
2022/11/15 04:28:17;;;;;;;3.77;3.10;;;;;;;7.23;100.00;153216.91;4951728;29;20450;-77
2022/11/15 04:31:28;;;;;;;4.00;3.20;;;;;;;7.20;100.00;153210.47;4958047;28;20481;-76
2022/11/15 04:34:34;;;;;;;3.20;2.90;;;;;;;7.17;100.00;153201.47;4974204;28;20450;-76
2022/11/15 04:37:40;;;;;;;4.40;3.37;;;;;;;7.15;100.00;153197.56;4973998;28;20469;-76
2022/11/15 04:40:44;;;;;;;6.17;3.57;;;;;;;7.11;100.00;153185.94;4973097;28;20456;-76
2022/11/15 04:43:49;;;;;;;4.70;3.87;;;;;;;7.10;100.00;153184.66;4973753;28;20464;-77
2022/11/15 04:46:54;;;;;;;4.00;3.30;;;;;;;7.07;100.00;153176.91;4973494;28;20554;-76
2022/11/15 04:49:59;;;;;;;3.73;2.53;;;;;;;7.04;100.00;153169.16;4955582;28;20497;-76
2022/11/15 04:53:06;;;;;;;4.50;3.07;;;;;;;7.01;100.00;153160.13;4977285;28;20817;-77
2022/11/15 04:56:11;;;;;;;4.83;3.80;;;;;;;6.97;100.00;153151.09;4976157;28;20469;-77
2022/11/15 04:59:16;;;;;;;4.27;3.63;;;;;;;6.93;100.00;153140.78;4964592;28;20465;-76
2022/11/15 05:02:22;;;;;;;3.70;3.13;;;;;;;6.92;100.00;153138.19;4973814;28;20840;-77
2022/11/15 05:05:26;;;;;;;4.33;3.27;;;;;;;6.94;100.00;153142.03;4964036;28;20425;-76
2022/11/15 05:08:32;;;;;;;5.43;3.57;;;;;;;6.93;100.00;153139.47;4973295;28;20477;-76
2022/11/15 05:11:38;;;;;;;4.03;3.50;;;;;;;6.92;100.00;153138.19;4973423;28;20426;-77
2022/11/15 05:14:42;;;;;;;5.07;3.27;;;;;;;6.94;100.00;153143.34;4973126;28;20477;-76
2022/11/15 05:17:46;;;;;;;4.33;3.47;;;;;;;6.94;100.00;153143.34;4965699;28;21014;-76
2022/11/15 05:20:51;;;;;;;4.20;3.67;;;;;;;6.97;100.00;153151.09;4973931;28;20769;-76
2022/11/15 05:23:56;;;;;;;4.00;3.33;;;;;;;6.98;100.00;153152.38;4974205;28;20422;-76
2022/11/15 05:27:01;;;;;;;3.30;3.00;;;;;;;7.00;100.00;153157.53;4973226;28;20461;-77
2022/11/15 05:30:06;;;;;;;4.60;3.30;;;;;;;6.99;100.00;153156.25;4973773;28;20829;-77
2022/11/15 05:33:10;;;;;;;2.97;2.50;;;;;;;7.01;100.00;153161.44;4984330;28;20835;-77
2022/11/15 05:36:18;;;;;;;4.13;3.20;;;;;;;6.99;100.00;153155.00;4969594;28;20469;-77
2022/11/15 05:39:25;;;;;;;3.90;3.03;;;;;;;7.01;100.00;153161.44;4959937;28;20422;-76
2022/11/15 05:42:30;;;;;;;3.90;3.10;;;;;;;7.01;100.00;153161.44;4968805;28;20457;-77
2022/11/15 05:45:35;;;;;;;3.27;2.80;;;;;;;7.04;100.00;153169.16;4962188;28;20430;-77
2022/11/15 05:48:43;;;;;;;3.83;3.20;;;;;;;7.08;100.00;153179.50;4956984;28;20450;-76
2022/11/15 05:51:48;;;;;;;5.83;4.03;;;;;;;7.25;100.00;153223.38;4970136;28;20453;-76
2022/11/15 05:54:54;;;;;;;6.20;4.23;;;;;;;7.21;100.00;153213.06;4973792;28;20448;-76
2022/11/15 05:57:58;;;;;;;4.90;4.10;;;;;;;7.22;100.00;153214.38;4975594;28;20500;-76
2022/11/15 06:01:02;;;;;;;10.73;4.60;;;;;;;7.14;100.00;153195.00;4969613;28;20801;-76
2022/11/15 06:04:06;;;;;;;5.40;4.87;;;;;;;7.17;100.00;153202.75;4983666;28;20489;-77
2022/11/15 06:07:10;;;;;;;5.30;4.43;;;;;;;7.12;100.00;153189.81;4976847;28;20492;-76
2022/11/15 06:10:17;;;;;;;6.30;5.70;;;;;;;7.11;100.00;153185.94;4976908;28;20460;-76
2022/11/15 06:13:21;;;;;;;7.07;5.10;;;;;;;7.06;100.00;153173.03;4974443;28;20466;-77
2022/11/15 06:16:25;;;;;;;7.10;5.87;;;;;;;7.04;100.00;153169.16;4975530;28;20449;-76
2022/11/15 06:19:32;;;;;;;8.20;6.00;;;;;;;7.09;100.00;153182.09;4955636;28;20461;-77
2022/11/15 06:22:37;;;;;;;7.10;5.50;;;;;;;7.15;100.00;153197.56;4986265;28;20441;-76
2022/11/15 06:25:42;;;;;;;6.53;5.47;;;;;;;7.21;100.00;153211.78;4974861;28;20448;-76
2022/11/15 06:28:46;;;;;;;5.57;4.97;;;;;;;7.25;100.00;153222.13;4968472;28;20545;-76
2022/11/15 06:31:50;;;;;;;5.67;5.00;;;;;;;7.24;100.00;153219.53;4957010;28;20482;-76
2022/11/15 06:34:55;;;;;;;9.00;4.53;;;;;;;7.24;100.00;153220.81;4987078;28;20454;-76
2022/11/15 06:38:03;;;;;;;8.10;4.80;;;;;;;7.39;100.00;153257.00;4988958;28;20951;-76
2022/11/15 06:41:10;;;;;;;6.20;5.20;;;;;;;7.42;100.00;153264.69;4993096;28;20441;-76
2022/11/15 06:44:16;;;;;;;6.47;4.90;;;;;;;7.60;100.00;153311.25;4992503;28;20476;-76
2022/11/15 06:47:20;;;;;;;7.23;5.33;;;;;;;7.63;100.00;153318.94;4992880;28;20898;-76
2022/11/15 06:50:25;;;;;;;4.43;4.03;;;;;;;7.62;100.00;153316.41;4991679;28;20468;-76
2022/11/15 06:53:29;;;;;;;7.33;5.03;;;;;;;7.72;100.00;153342.22;4983008;28;20457;-76
2022/11/15 06:56:36;;;;;;;6.80;4.63;;;;;;;7.70;100.00;153338.38;4977386;28;20536;-77
2022/11/15 06:59:40;;;;;;;6.13;4.73;;;;;;;7.70;100.00;153338.38;4993840;28;20502;-77
2022/11/15 07:02:44;;;;;;;6.30;5.40;;;;;;;7.84;100.00;153373.19;4991735;28;20496;-76
2022/11/15 07:05:54;;;;;;;6.00;5.40;;;;;;;7.96;100.00;153405.53;4977755;28;20457;-77
2022/11/15 07:08:58;;;;;;;6.20;5.60;;;;;;;8.01;100.00;153417.16;4984462;28;20956;-76
2022/11/15 07:12:04;;;;;;;7.60;6.23;;;;;;;8.00;100.00;153414.53;4975558;28;20961;-77
2022/11/15 07:15:09;;;;;;;6.43;5.67;;;;;;;7.98;100.00;153410.69;4982289;28;20955;-77
2022/11/15 07:18:13;;;;;;;8.03;5.87;;;;;;;8.04;100.00;153424.91;4994297;28;20507;-76
2022/11/15 07:21:18;;;;;;;6.30;5.63;;;;;;;8.05;100.00;153426.22;4984776;28;20436;-76
2022/11/15 07:24:22;;;;;;;6.40;5.70;;;;;;;8.07;100.00;153432.66;4988324;28;20473;-77
2022/11/15 07:27:27;;;;;;;5.60;5.10;;;;;;;8.04;100.00;153424.91;4980098;28;21085;-77
2022/11/15 07:30:31;;;;;;;5.80;5.10;;;;;;;7.99;100.00;153412.00;4992993;28;20499;-77
2022/11/15 07:33:36;;;;;;;6.00;4.40;;;;;;;7.99;100.00;153412.00;4984073;28;20480;-77
2022/11/15 07:36:40;;;;;;;5.47;4.90;;;;;;;8.01;100.00;153415.84;4992547;28;20828;-77
2022/11/15 07:39:56;;;;;;;8.33;5.63;;;;;;;8.07;100.00;153431.38;4983724;28;20460;-77
2022/11/15 07:43:02;;;;;;;7.40;5.70;;;;;;;8.27;100.00;153484.41;4973707;28;20497;-77
2022/11/15 07:46:09;;;;;;;6.30;5.30;;;;;;;8.54;100.00;153554.19;4989108;28;20444;-77
2022/11/15 07:49:13;;;;;;;6.93;5.00;;;;;;;8.74;100.00;153603.28;4993288;28;20817;-86
2022/11/15 07:52:17;;;;;;;5.50;4.70;;;;;;;8.93;100.00;153653.72;4991039;28;20453;-86
2022/11/15 07:55:22;;;;;;;5.33;4.60;;;;;;;9.03;100.00;153678.28;4981459;28;20437;-86
2022/11/15 07:58:27;;;;;;;4.90;4.40;;;;;;;9.16;100.00;153713.22;5007807;28;20778;-86
2022/11/15 08:01:32;;;;;;;7.17;5.37;;;;;;;9.31;100.00;153750.75;5008277;28;20432;-86
2022/11/15 08:04:36;;;;;;;6.53;4.70;;;;;;;9.43;100.00;153781.75;4984857;28;20457;-86
2022/11/15 08:07:41;;;;;;;6.80;4.17;;;;;;;9.46;100.00;153789.53;4992746;28;20460;-86
2022/11/15 08:10:44;;;;;;;6.40;4.40;;;;;;;9.50;100.00;153799.91;4988904;28;20449;-87
2022/11/15 08:13:51;;;;;;;6.57;4.63;;;;;;;9.53;100.00;153807.63;4974354;28;20809;-87
2022/11/15 08:16:55;;;;;;;4.90;3.90;;;;;;;9.59;100.00;153823.16;4990607;28;20547;-87
2022/11/15 08:19:59;;;;;;;7.53;4.40;;;;;;;9.67;100.00;153843.88;4989788;28;20448;-87
2022/11/15 08:23:05;;;;;;;5.23;4.53;;;;;;;9.76;100.00;153867.19;4990319;28;20449;-87
2022/11/15 08:26:09;;;;;;;5.47;4.40;;;;;;;9.81;100.00;153878.81;4993779;28;20822;-87
2022/11/15 08:29:15;;;;;;;6.77;5.50;;;;;;;9.82;100.00;153880.13;4992529;28;20835;-87
2022/11/15 08:32:19;;;;;;;7.97;6.50;;;;;;;9.84;100.00;153885.28;4989793;28;20984;-87
2022/11/15 08:35:24;;;;;;;6.20;5.60;;;;;;;9.89;100.00;153898.22;4989800;28;21001;-87
2022/11/15 08:38:30;;;;;;;5.47;4.60;;;;;;;9.94;100.00;153911.16;4986953;28;20444;-87
2022/11/15 08:41:36;;;;;;;7.80;4.13;;;;;;;9.94;100.00;153912.47;4983322;28;20497;-87
2022/11/15 08:44:42;;;;;;;5.20;4.70;;;;;;;10.01;100.00;153929.25;4988164;28;20457;-86
2022/11/15 08:47:46;;;;;;;5.13;4.13;;;;;;;10.00;100.00;153928.00;4974721;28;20481;-87
2022/11/15 08:50:54;;;;;;;8.00;6.00;;;;;;;10.00;100.00;153928.00;4981060;28;20524;-87
2022/11/15 08:53:59;;;;;;;6.60;4.93;;;;;;;10.02;100.00;153931.88;4981772;28;20500;-87
2022/11/15 08:57:03;;;;;;;5.47;4.57;;;;;;;10.03;100.00;153935.78;4990761;28;20448;-87
2022/11/15 09:00:11;;;;;;;4.70;4.20;;;;;;;10.02;100.00;153933.16;4975792;28;21018;-87
2022/11/15 09:03:15;;;;;;;4.33;3.57;;;;;;;10.09;100.00;153949.97;4985729;28;20521;-87
2022/11/15 09:06:19;;;;;;;6.50;5.30;;;;;;;10.17;100.00;153970.72;4987740;28;20462;-87
2022/11/15 09:09:23;;;;;;;4.67;4.17;;;;;;;10.28;100.00;153999.22;4986674;28;20967;-87
2022/11/15 09:12:28;;;;;;;4.93;4.43;;;;;;;10.32;100.00;154009.59;4993308;28;20437;-87
2022/11/15 09:15:33;;;;;;;8.30;5.97;;;;;;;10.36;100.00;154019.94;4991855;28;20452;-87
2022/11/15 09:18:38;;;;;;;10.53;7.80;;;;;;;10.42;100.00;154035.47;4989721;28;20441;-87
2022/11/15 09:21:42;;;;;;;9.73;6.67;;;;;;;10.46;100.00;154045.81;5000824;28;20448;-87
2022/11/15 09:24:46;;;;;;;8.87;5.97;;;;;;;10.47;100.00;154048.41;4985538;28;21114;-87
2022/11/15 09:27:50;;;;;;;10.10;7.30;;;;;;;10.50;100.00;154056.19;4973557;28;20872;-87
2022/11/15 09:30:59;;;;;;;7.90;6.57;;;;;;;10.53;100.00;154063.97;4982282;28;20511;-87
2022/11/15 09:34:03;;;;;;;8.17;5.17;;;;;;;10.57;100.00;154074.31;4999337;28;20581;-86
2022/11/15 09:37:08;;;;;;;6.70;5.57;;;;;;;10.71;100.00;154110.56;5002467;28;20832;-86
2022/11/15 09:40:16;;;;;;;7.73;5.00;;;;;;;10.79;100.00;154131.28;4996386;28;20816;-86
2022/11/15 09:43:33;;;;;;;6.43;5.30;;;;;;;10.81;100.00;154136.47;4996081;28;20948;-86
2022/11/15 09:46:51;;;;;;;7.07;5.80;;;;;;;10.88;100.00;154154.56;4996788;28;20460;-87
2022/11/15 09:50:17;;;;;;;6.27;4.80;;;;;;;10.97;100.00;154177.91;4996019;28;20483;-87
2022/11/15 09:53:03;;;;;;;4.50;4.00;;;;;;;10.97;100.00;154177.91;4971307;28;20473;-87
2022/11/15 09:55:54;;;;;;;8.87;6.30;;;;;;;11.04;100.00;154193.47;4995885;28;20440;-87
2022/11/15 09:58:45;;;;;;;7.37;6.57;;;;;;;11.08;100.00;154203.81;4986775;28;20416;-87
2022/11/15 10:01:40;;;;;;;6.73;5.50;;;;;;;11.11;100.00;154211.59;4980899;28;20436;-87
2022/11/15 10:04:26;;;;;;;9.30;6.90;;;;;;;11.09;100.00;154207.72;4996550;28;20499;-87
2022/11/15 10:07:16;;;;;;;7.43;6.60;;;;;;;11.10;100.00;154210.28;4996146;28;20818;-87
2022/11/15 10:10:04;;;;;;;6.67;5.00;;;;;;;11.16;100.00;154224.53;4995726;28;20476;-86
2022/11/15 10:12:51;;;;;;;8.07;5.40;;;;;;;11.27;100.00;154253.03;4984190;28;20425;-87
2022/11/15 10:15:36;;;;;;;9.63;7.00;;;;;;;11.29;100.00;154258.22;4976545;28;20779;-87
2022/11/15 10:18:28;;;;;;;5.63;5.10;;;;;;;11.36;100.00;154276.34;4976822;28;20406;-87
2022/11/15 10:21:18;;;;;;;10.33;7.53;;;;;;;11.36;100.00;154276.34;4974965;28;20450;-87
2022/11/15 10:24:11;;;;;;;8.90;7.27;;;;;;;11.42;100.00;154293.19;4977104;28;20426;-86
2022/11/15 10:26:57;;;;;;;10.20;7.63;;;;;;;11.46;100.00;154302.28;4991388;28;20469;-86
2022/11/15 10:29:44;;;;;;;7.60;6.23;;;;;;;11.55;100.00;154325.59;4984378;28;20453;-87
2022/11/15 10:32:31;;;;;;;5.57;4.83;;;;;;;11.60;100.00;154338.53;4978117;28;20983;-86
2022/11/15 10:35:26;;;;;;;5.40;4.37;;;;;;;11.64;100.00;154348.94;4994302;28;20474;-87
2022/11/15 10:38:12;;;;;;;5.17;4.30;;;;;;;11.66;100.00;154352.78;4993039;28;20782;-86
2022/11/15 10:41:08;;;;;;;5.00;4.50;;;;;;;11.75;100.00;154376.19;4991434;28;20504;-87
2022/11/15 10:44:08;;;;;;;5.70;4.83;;;;;;;11.85;99.47;154402.09;4994243;28;20823;-87
2022/11/15 10:47:35;;;;;;;4.70;3.70;;;;;;;11.89;99.88;154413.75;4986848;28;20441;-87
2022/11/15 10:50:30;;;;;;;5.60;4.03;;;;;;;11.93;100.00;154424.16;4993835;28;20508;-87
2022/11/15 10:53:20;;;;;;;8.83;4.70;;;;;;;11.95;100.00;154429.31;4995081;28;20428;-87
2022/11/15 10:56:09;;;;;;;4.90;4.40;;;;;;;12.02;99.06;154446.19;4994188;28;21042;-87
2022/11/15 10:58:56;;;;;;;6.97;5.00;;;;;;;12.09;99.96;154465.63;4995290;28;20819;-87
2022/11/15 11:01:47;;;;;;;4.93;4.23;;;;;;;12.25;99.07;154504.50;4994151;28;20468;-87
2022/11/15 11:04:50;;;;;;;6.47;5.07;;;;;;;12.23;98.95;154499.34;4975792;28;20515;-87
2022/11/15 11:07:37;;;;;;;5.90;4.73;;;;;;;12.17;98.25;154486.38;4977924;28;20434;-87
2022/11/15 11:10:22;;;;;;;4.90;4.40;;;;;;;12.17;99.00;154486.38;4974540;28;20414;-87
2022/11/15 11:13:15;;;;;;;6.80;5.40;;;;;;;12.10;98.98;154466.88;4974507;28;20466;-87
2022/11/15 11:16:24;;;;;;;6.57;5.70;;;;;;;12.08;99.47;154463.03;4975051;28;21164;-87
2022/11/15 11:19:20;;;;;;;7.60;5.60;;;;;;;12.09;99.65;154465.63;4983525;28;20472;-87
2022/11/15 11:22:11;;;;;;;6.07;5.40;;;;;;;12.06;99.78;154457.84;4989060;28;20461;-87
2022/11/15 11:25:06;;;;;;;7.83;5.70;;;;;;;12.01;100.00;154444.91;4994004;28;20551;-87
2022/11/15 11:28:00;;;;;;;5.90;5.30;;;;;;;11.98;100.00;154437.09;4994694;28;20472;-87
2022/11/15 11:31:07;;;;;;;8.20;5.40;;;;;;;12.04;100.00;154452.69;4991195;28;20537;-87
2022/11/15 11:34:00;;;;;;;6.47;5.47;;;;;;;12.01;100.00;154444.91;4995609;28;20568;-87
2022/11/15 11:36:49;;;;;;;7.23;5.23;;;;;;;12.05;100.00;154455.25;4998240;28;20799;-87
2022/11/15 11:39:44;;;;;;;5.90;5.03;;;;;;;12.08;100.00;154461.72;4995359;28;20488;-87
2022/11/15 11:42:38;;;;;;;6.10;5.17;;;;;;;12.13;100.00;154474.66;4992875;28;20461;-78
2022/11/15 11:45:32;;;;;;;7.77;5.60;;;;;;;12.20;100.00;154492.84;4994278;28;20430;-78
2022/11/15 11:48:29;;;;;;;6.87;5.60;;;;;;;12.23;100.00;154501.91;4992863;28;20433;-77
2022/11/15 11:51:19;;;;;;;5.37;4.87;;;;;;;12.31;100.00;154520.09;4973654;28;20832;-77
2022/11/15 11:54:07;;;;;;;5.77;5.17;;;;;;;12.39;100.00;154540.84;4975086;28;20460;-77
2022/11/15 11:56:54;;;;;;;4.93;4.40;;;;;;;12.44;99.75;154553.78;4992548;28;20441;-77
2022/11/15 11:59:46;;;;;;;6.67;4.30;;;;;;;12.50;99.49;154569.31;4990214;28;20444;-77
2022/11/15 12:02:34;;;;;;;5.60;5.00;;;;;;;12.53;100.00;154577.09;4993996;28;20912;-77
2022/11/15 12:05:24;;;;;;;6.30;5.27;;;;;;;12.55;99.41;154582.34;4991441;28;20796;-78
2022/11/15 12:08:26;;;;;;;8.90;5.20;;;;;;;12.73;98.18;154629.00;4977437;28;20511;-77
2022/11/15 12:11:15;;;;;;;10.37;6.53;;;;;;;12.90;97.12;154673.09;4986997;28;20480;-77
2022/11/15 12:14:02;;;;;;;5.80;5.20;;;;;;;12.87;97.70;154665.28;4993879;28;20919;-77
2022/11/15 12:16:49;;;;;;;7.80;6.50;;;;;;;13.11;97.27;154727.63;4989234;28;20516;-78
2022/11/15 12:19:36;;;;;;;8.67;6.10;;;;;;;12.88;98.04;154666.59;4993100;28;20943;-77
2022/11/15 12:22:23;;;;;;;7.17;5.97;;;;;;;12.89;97.96;154670.53;4993535;28;20786;-77
2022/11/15 12:25:16;;;;;;;7.00;6.30;;;;;;;12.85;98.94;154660.13;4987725;28;20643;-77
2022/11/15 12:28:07;;;;;;;7.63;6.67;;;;;;;12.83;97.73;154654.94;4990023;28;20928;-78
2022/11/15 12:30:54;;;;;;;7.50;6.70;;;;;;;12.75;98.49;154634.19;4980604;28;20448;-77
2022/11/15 12:33:43;;;;;;;6.90;6.20;;;;;;;12.70;98.65;154621.22;4992547;28;20543;-77
2022/11/15 12:36:36;;;;;;;7.50;6.30;;;;;;;12.78;98.98;154643.28;4993374;28;20440;-76
2022/11/15 12:39:22;;;;;;;8.90;6.20;;;;;;;12.69;98.81;154618.63;4980388;28;20433;-76
2022/11/15 12:42:37;;;;;;;6.20;5.60;;;;;;;12.67;99.86;154613.44;4992062;28;20441;-76
2022/11/15 12:45:28;;;;;;;9.17;7.07;;;;;;;12.58;100.00;154590.06;4976081;28;20537;-76
2022/11/15 12:48:58;;;;;;;7.10;6.40;;;;;;;12.63;100.00;154603.03;4991647;28;20444;-76
2022/11/15 12:52:06;;;;;;;9.13;6.13;;;;;;;12.60;99.92;154595.28;4946786;28;20485;-76
2022/11/15 12:55:07;;;;;;;9.63;6.53;;;;;;;12.67;100.00;154613.44;4970843;28;20470;-76
2022/11/15 12:57:53;;;;;;;8.10;6.10;;;;;;;12.61;100.00;154597.84;4988854;28;21052;-76
2022/11/15 13:00:39;;;;;;;8.77;6.97;;;;;;;12.62;100.00;154600.47;4991236;28;20983;-76
2022/11/15 13:03:26;;;;;;;6.03;5.43;;;;;;;12.70;100.00;154621.22;4991168;28;20908;-76
2022/11/15 13:06:38;;;;;;;6.17;5.53;;;;;;;12.67;100.00;154613.44;5003709;28;20448;-76
2022/11/15 13:09:55;;;;;;;7.50;5.97;;;;;;;12.62;99.73;154600.47;4989704;28;20457;-76
2022/11/15 13:12:52;;;;;;;7.20;5.63;;;;;;;12.62;99.53;154600.47;4983215;28;20583;-76
2022/11/15 13:15:56;;;;;;;10.53;5.70;;;;;;;12.58;99.82;154590.06;4991176;28;20585;-76
2022/11/15 13:18:41;;;;;;;10.67;5.60;;;;;;;12.67;98.07;154613.44;4990414;28;20569;-76
2022/11/15 13:24:30;;;;;;;8.40;5.63;;;;;;;12.51;100.00;154571.94;4988174;28;20449;-77
2022/11/15 13:27:19;;;;;;;9.03;5.77;;;;;;;12.51;100.00;154571.94;4994759;28;20445;-77
2022/11/15 13:30:05;;;;;;;5.63;4.70;;;;;;;12.49;99.91;154566.75;4995659;28;20461;-77
2022/11/15 13:32:51;;;;;;;7.47;4.93;;;;;;;12.54;99.88;154581.03;4988827;28;20487;-77
2022/11/15 13:35:40;;;;;;;5.43;4.80;;;;;;;12.52;99.68;154575.78;4991946;28;20460;-77
2022/11/15 13:38:29;;;;;;;7.33;5.27;;;;;;;12.53;99.19;154577.09;4982022;28;20444;-77
2022/11/15 13:41:20;;;;;;;9.27;5.77;;;;;;;12.67;99.91;154613.44;4997172;28;20444;-77
2022/11/15 13:44:20;;;;;;;9.10;5.90;;;;;;;12.64;100.00;154605.66;4989360;28;21010;-77
2022/11/15 13:47:07;;;;;;;5.90;5.30;;;;;;;12.62;100.00;154601.78;4993878;28;20460;-77
2022/11/15 13:49:52;;;;;;;8.10;6.13;;;;;;;12.66;99.68;154610.81;4981212;28;20445;-77
2022/11/15 13:52:39;;;;;;;7.43;6.27;;;;;;;12.54;100.00;154579.72;4990000;28;20945;-77
2022/11/15 13:55:25;;;;;;;8.93;6.87;;;;;;;12.58;99.29;154590.06;4981057;28;20456;-77
2022/11/15 13:58:10;;;;;;;8.07;6.03;;;;;;;12.44;100.00;154555.09;4981678;28;20473;-77
2022/11/15 14:01:01;;;;;;;7.90;7.03;;;;;;;12.40;100.00;154543.41;4985025;28;20931;-77
2022/11/15 14:03:53;;;;;;;8.13;7.27;;;;;;;12.34;100.00;154527.88;4985801;28;20425;-77
2022/11/15 14:06:45;;;;;;;10.30;6.90;;;;;;;12.32;100.00;154523.94;4984862;28;20454;-77
2022/11/15 14:09:37;;;;;;;8.90;7.40;;;;;;;12.32;100.00;154522.66;4994698;28;20437;-77